Time;durP1;ratioP1;P1;durP2;ratioP2;P2;SDS_P1;SDS_P2;PMS_P1;PMS_P2;Temp;Humidity;BMP_temperature;BMP_pressure;BME280_temperature;BME280_humidity;BME280_pressure;Samples;Min_cycle;Max_cycle;Signal;HPM_P1;HPM_P2
2023/03/07 00:00:02;;;;;;;11.88;8.07;;;9.50;80.50;;;;;;4980449;28;20023;-81
2023/03/07 00:02:28;;;;;;;12.25;8.40;;;9.50;80.40;;;;;;4962843;28;20030;-81
2023/03/07 00:04:54;;;;;;;10.88;7.28;;;9.50;80.30;;;;;;4963479;28;20055;-81
2023/03/07 00:07:19;;;;;;;11.25;7.85;;;9.50;80.40;;;;;;4964068;28;20426;-81
2023/03/07 00:09:44;;;;;;;12.25;8.32;;;9.50;80.40;;;;;;4982859;28;20023;-81
2023/03/07 00:12:10;;;;;;;11.70;7.75;;;9.50;80.30;;;;;;4966292;28;20022;-82
2023/03/07 00:14:36;;;;;;;11.48;7.82;;;9.50;80.50;;;;;;4981765;28;20047;-81
2023/03/07 00:17:01;;;;;;;11.98;8.23;;;9.50;80.50;;;;;;4978981;28;20031;-81
2023/03/07 00:19:27;;;;;;;11.30;7.97;;;9.50;80.40;;;;;;4981870;28;20109;-81
2023/03/07 00:21:52;;;;;;;11.18;7.85;;;9.50;80.40;;;;;;4981996;28;20034;-81
2023/03/07 00:24:18;;;;;;;11.75;8.10;;;9.50;80.50;;;;;;4963224;28;20031;-81
2023/03/07 00:26:43;;;;;;;12.55;8.35;;;9.50;80.40;;;;;;4979764;28;20023;-81
2023/03/07 00:29:09;;;;;;;11.30;7.78;;;9.50;80.30;;;;;;4961628;28;20115;-81
2023/03/07 00:31:36;;;;;;;11.48;7.75;;;9.40;80.20;;;;;;4960802;28;20029;-81
2023/03/07 00:34:03;;;;;;;11.48;7.82;;;9.50;80.30;;;;;;4960925;28;20026;-81
2023/03/07 00:36:29;;;;;;;10.10;6.93;;;9.50;80.40;;;;;;4959315;28;20437;-81
2023/03/07 00:38:54;;;;;;;11.02;7.10;;;9.40;80.30;;;;;;4978068;28;20027;-81
2023/03/07 00:41:22;;;;;;;11.55;7.90;;;9.50;80.20;;;;;;4978583;28;20709;-81
2023/03/07 00:43:47;;;;;;;12.25;8.20;;;9.50;80.30;;;;;;4977205;28;20042;-79
2023/03/07 00:46:19;;;;;;;12.20;7.65;;;9.50;80.50;;;;;;4959311;28;20117;-81
2023/03/07 00:48:45;;;;;;;11.60;7.85;;;9.40;80.40;;;;;;4977386;28;20135;-81
2023/03/07 00:51:13;;;;;;;11.52;8.00;;;9.50;80.30;;;;;;4963184;28;20030;-80
2023/03/07 00:53:39;;;;;;;11.95;7.65;;;9.50;80.60;;;;;;4979888;28;20396;-81
2023/03/07 00:56:10;;;;;;;11.43;7.47;;;9.50;80.50;;;;;;4962371;28;20081;-80
2023/03/07 00:58:36;;;;;;;11.80;7.65;;;9.50;80.50;;;;;;4963199;28;20026;-80
2023/03/07 01:01:05;;;;;;;10.00;6.78;;;9.50;80.50;;;;;;4959619;28;20031;-80
2023/03/07 01:03:31;;;;;;;10.15;7.10;;;9.50;80.60;;;;;;4960710;28;20056;-80
2023/03/07 01:05:57;;;;;;;11.45;7.47;;;9.50;80.60;;;;;;4959184;28;20033;-80
2023/03/07 01:08:23;;;;;;;11.65;7.65;;;9.50;80.60;;;;;;4977251;28;20027;-80
2023/03/07 01:10:48;;;;;;;11.23;7.72;;;9.50;80.60;;;;;;4958801;28;20026;-80
2023/03/07 01:13:15;;;;;;;10.35;6.93;;;9.50;80.60;;;;;;4976238;28;20022;-79
2023/03/07 01:15:41;;;;;;;10.90;7.57;;;9.50;80.60;;;;;;4975785;28;20038;-80
2023/03/07 01:18:08;;;;;;;10.15;7.05;;;9.50;80.80;;;;;;4958543;28;20150;-80
2023/03/07 01:20:35;;;;;;;11.07;7.38;;;9.40;80.70;;;;;;4958796;28;20606;-81
2023/03/07 01:23:01;;;;;;;10.77;7.20;;;9.50;80.60;;;;;;4975601;28;20035;-81
2023/03/07 01:25:27;;;;;;;10.63;7.22;;;9.50;80.60;;;;;;4958488;28;20034;-81
2023/03/07 01:27:57;;;;;;;10.45;6.82;;;9.50;80.80;;;;;;4978426;28;20027;-80
2023/03/07 01:30:23;;;;;;;10.75;7.32;;;9.50;80.80;;;;;;4962608;28;20022;-81
2023/03/07 01:32:56;;;;;;;10.27;6.88;;;9.50;80.80;;;;;;4964118;28;20031;-79
2023/03/07 01:35:22;;;;;;;10.90;7.30;;;9.40;80.80;;;;;;4963947;28;20023;-81
2023/03/07 01:37:49;;;;;;;10.32;7.25;;;9.50;80.90;;;;;;4961635;28;20026;-80
2023/03/07 01:40:15;;;;;;;10.43;6.85;;;9.40;80.80;;;;;;4978371;28;20035;-80
2023/03/07 01:42:40;;;;;;;10.68;7.07;;;9.50;81.00;;;;;;4980905;28;20539;-80
2023/03/07 01:45:32;;;;;;;9.60;6.70;;;9.40;80.90;;;;;;4963273;28;20589;-80
2023/03/07 01:47:57;;;;;;;10.05;6.78;;;9.50;80.90;;;;;;4981636;28;20108;-80
2023/03/07 01:50:23;;;;;;;10.30;7.10;;;9.40;80.90;;;;;;4964442;28;20046;-80
2023/03/07 01:52:59;;;;;;;9.82;6.70;;;9.40;80.90;;;;;;4981478;28;20374;-81
2023/03/07 01:55:31;;;;;;;10.52;7.15;;;9.50;81.00;;;;;;4969205;28;20035;-80
2023/03/07 01:57:59;;;;;;;10.15;7.03;;;9.40;80.90;;;;;;4980349;28;20454;-81
2023/03/07 02:00:28;;;;;;;10.60;7.20;;;9.50;81.10;;;;;;4979820;28;20489;-81
2023/03/07 02:03:26;;;;;;;10.45;7.20;;;9.40;80.90;;;;;;4978764;28;20054;-81
2023/03/07 02:05:57;;;;;;;9.30;6.07;;;9.40;81.00;;;;;;4979601;28;20477;-81
2023/03/07 02:08:25;;;;;;;9.50;6.40;;;9.40;81.00;;;;;;4979271;28;20058;-81
2023/03/07 02:10:51;;;;;;;10.07;6.95;;;9.40;81.00;;;;;;4961872;28;20405;-81
2023/03/07 02:13:17;;;;;;;9.30;6.70;;;9.40;81.00;;;;;;4977592;28;20038;-81
2023/03/07 02:15:42;;;;;;;9.93;6.65;;;9.40;81.00;;;;;;4978528;28;20406;-81
2023/03/07 02:18:10;;;;;;;11.73;7.72;;;9.50;81.20;;;;;;4977880;28;20491;-81
2023/03/07 02:21:08;;;;;;;10.65;7.00;;;9.40;81.10;;;;;;4981572;28;20433;-81
2023/03/07 02:23:45;;;;;;;9.88;6.80;;;9.40;81.00;;;;;;4960918;28;20055;-80
2023/03/07 02:26:39;;;;;;;10.40;7.25;;;9.40;81.10;;;;;;4976177;28;20093;-81
2023/03/07 02:29:05;;;;;;;9.70;6.32;;;9.40;81.00;;;;;;4963170;28;20062;-81
2023/03/07 02:31:30;;;;;;;9.88;6.75;;;9.40;81.10;;;;;;4980119;28;20081;-81
2023/03/07 02:33:56;;;;;;;10.23;6.78;;;9.40;81.10;;;;;;4975600;28;20114;-79
2023/03/07 02:36:26;;;;;;;9.48;6.40;;;9.50;81.20;;;;;;4980254;28;20027;-81
2023/03/07 02:38:54;;;;;;;10.02;6.95;;;9.50;81.10;;;;;;4978781;28;20081;-81
2023/03/07 02:41:24;;;;;;;9.75;6.60;;;9.50;81.20;;;;;;4978138;28;20477;-81
2023/03/07 02:43:49;;;;;;;9.57;6.57;;;9.40;81.10;;;;;;4980033;28;20059;-80
2023/03/07 02:46:15;;;;;;;9.55;6.35;;;9.50;81.30;;;;;;4978336;28;20035;-81
2023/03/07 02:48:40;;;;;;;10.02;6.63;;;9.40;81.10;;;;;;4978115;28;20042;-81
2023/03/07 02:51:06;;;;;;;9.38;6.30;;;9.40;81.20;;;;;;4977542;28;20027;-81
2023/03/07 02:53:31;;;;;;;10.10;6.65;;;9.40;81.10;;;;;;4979791;28;20019;-81
2023/03/07 02:55:57;;;;;;;9.88;6.80;;;9.40;81.70;;;;;;4979773;28;20030;-81
2023/03/07 02:58:22;;;;;;;8.70;5.85;;;9.50;81.20;;;;;;4978445;28;20090;-81
2023/03/07 03:00:48;;;;;;;9.32;6.10;;;9.40;81.20;;;;;;4979003;28;20035;-81
2023/03/07 03:03:14;;;;;;;9.40;6.15;;;9.40;81.20;;;;;;4978805;28;20031;-81
2023/03/07 03:05:39;;;;;;;10.27;6.45;;;9.40;81.20;;;;;;4976551;28;20090;-80
2023/03/07 03:08:05;;;;;;;9.73;6.57;;;9.40;81.30;;;;;;4979380;28;20038;-81
2023/03/07 03:10:31;;;;;;;10.18;6.50;;;9.40;81.20;;;;;;4977845;28;20393;-81
2023/03/07 03:12:56;;;;;;;9.93;6.35;;;9.40;81.30;;;;;;4976482;28;20031;-80
2023/03/07 03:15:22;;;;;;;9.23;6.30;;;9.40;81.20;;;;;;4977247;28;20477;-81
2023/03/07 03:17:47;;;;;;;9.55;6.43;;;9.50;81.30;;;;;;4977090;28;20035;-81
2023/03/07 03:20:13;;;;;;;8.55;6.00;;;9.40;81.30;;;;;;4977087;28;20027;-80
2023/03/07 03:22:39;;;;;;;10.10;6.47;;;9.40;81.20;;;;;;4977347;28;20038;-81
2023/03/07 03:25:08;;;;;;;9.50;6.22;;;9.40;81.30;;;;;;4974784;28;20027;-81
2023/03/07 03:27:34;;;;;;;9.77;6.35;;;9.40;81.30;;;;;;4977490;28;20523;-81
2023/03/07 03:29:59;;;;;;;9.13;6.20;;;9.40;81.30;;;;;;4979271;28;20057;-80
2023/03/07 03:32:25;;;;;;;9.93;6.43;;;9.40;81.40;;;;;;4961928;28;20508;-81
2023/03/07 03:34:50;;;;;;;9.38;6.25;;;9.40;81.30;;;;;;4978257;28;20022;-81
2023/03/07 03:37:16;;;;;;;9.18;6.13;;;9.40;81.30;;;;;;4975798;28;20027;-80
2023/03/07 03:39:41;;;;;;;9.32;6.13;;;9.40;81.30;;;;;;4960755;28;20038;-81
2023/03/07 03:42:07;;;;;;;9.52;6.57;;;9.40;81.30;;;;;;4978164;28;20034;-81
2023/03/07 03:44:33;;;;;;;9.20;6.30;;;9.40;81.30;;;;;;4979398;28;20026;-81
2023/03/07 03:46:58;;;;;;;9.23;6.10;;;9.50;81.30;;;;;;4974300;28;20515;-81
2023/03/07 03:49:24;;;;;;;8.57;5.85;;;9.40;81.30;;;;;;4957992;28;20634;-81
2023/03/07 03:51:49;;;;;;;8.95;5.93;;;9.40;81.30;;;;;;4958074;28;20031;-81
2023/03/07 03:54:15;;;;;;;8.88;5.70;;;9.40;81.30;;;;;;4977503;28;20034;-80
2023/03/07 03:56:40;;;;;;;8.93;5.82;;;9.40;81.30;;;;;;4977353;28;20094;-80
2023/03/07 03:59:06;;;;;;;9.27;6.22;;;9.40;81.30;;;;;;4977137;28;20034;-80
2023/03/07 04:01:32;;;;;;;9.27;6.30;;;9.40;81.30;;;;;;4960850;28;20117;-80
2023/03/07 04:03:58;;;;;;;9.10;5.95;;;9.50;81.30;;;;;;4960214;28;20023;-80
2023/03/07 04:06:30;;;;;;;9.20;5.90;;;9.30;81.30;;;;;;4960596;28;20027;-80
2023/03/07 04:08:56;;;;;;;8.60;5.90;;;9.40;81.30;;;;;;4960790;28;20433;-80
2023/03/07 04:11:23;;;;;;;9.23;5.82;;;9.40;81.40;;;;;;4960733;28;20074;-80
2023/03/07 04:13:49;;;;;;;8.68;5.53;;;9.40;81.40;;;;;;4959889;28;20031;-79
2023/03/07 04:16:15;;;;;;;8.98;5.95;;;9.40;81.30;;;;;;4977805;28;20444;-80
2023/03/07 04:18:41;;;;;;;8.73;5.55;;;9.40;81.30;;;;;;4977631;28;20057;-81
2023/03/07 04:21:08;;;;;;;8.95;5.82;;;9.40;81.40;;;;;;4960021;28;20031;-81
2023/03/07 04:23:34;;;;;;;8.57;5.80;;;9.40;81.40;;;;;;4959880;28;20019;-81
2023/03/07 04:26:01;;;;;;;8.23;5.55;;;9.40;81.40;;;;;;4959382;28;20027;-82
2023/03/07 04:28:44;;;;;;;8.20;5.60;;;9.40;81.40;;;;;;4961873;28;20045;-80
2023/03/07 04:31:24;;;;;;;9.20;6.00;;;9.40;81.40;;;;;;4956476;28;20438;-78
2023/03/07 04:33:50;;;;;;;8.10;5.50;;;9.40;81.40;;;;;;4955888;28;20113;-79
2023/03/07 04:36:16;;;;;;;8.98;5.40;;;9.40;81.40;;;;;;4955739;28;20329;-79
2023/03/07 04:38:42;;;;;;;8.45;5.47;;;9.40;81.40;;;;;;4955229;28;20030;-80
2023/03/07 04:41:16;;;;;;;8.32;5.28;;;9.30;81.40;;;;;;4976638;28;20497;-81
2023/03/07 04:43:42;;;;;;;8.65;5.78;;;9.40;81.40;;;;;;4959531;28;20037;-80
2023/03/07 04:46:09;;;;;;;8.10;5.22;;;9.40;81.40;;;;;;4954537;28;20023;-78
2023/03/07 04:48:35;;;;;;;8.35;5.60;;;9.40;81.40;;;;;;4954026;28;20834;-79
2023/03/07 04:51:00;;;;;;;8.55;5.43;;;9.40;81.30;;;;;;4972119;28;20031;-79
2023/03/07 04:53:26;;;;;;;8.38;5.65;;;9.40;81.30;;;;;;4973681;28;20022;-78
2023/03/07 04:55:57;;;;;;;7.63;5.10;;;9.40;81.30;;;;;;4955973;28;20034;-78
2023/03/07 04:58:22;;;;;;;8.20;5.20;;;9.40;81.30;;;;;;4973172;28;20114;-77
2023/03/07 05:00:48;;;;;;;8.25;5.25;;;9.40;81.30;;;;;;4973689;28;20109;-79
2023/03/07 05:03:14;;;;;;;7.93;5.30;;;9.40;81.30;;;;;;4956198;28;20030;-78
2023/03/07 05:05:40;;;;;;;8.55;5.63;;;9.40;81.30;;;;;;4972808;28;20038;-81
2023/03/07 05:08:05;;;;;;;8.45;5.28;;;9.40;81.30;;;;;;4973213;28;20085;-78
2023/03/07 05:10:32;;;;;;;8.57;5.78;;;9.40;81.20;;;;;;4958280;28;20445;-78
2023/03/07 05:12:58;;;;;;;7.10;4.50;;;9.40;81.30;;;;;;4973390;28;20034;-81
2023/03/07 05:15:23;;;;;;;8.80;5.90;;;9.40;81.30;;;;;;4956673;28;20041;-79
2023/03/07 05:17:49;;;;;;;8.43;5.63;;;9.40;81.30;;;;;;4953758;28;20030;-79
2023/03/07 05:20:14;;;;;;;7.68;5.22;;;9.40;81.30;;;;;;4954824;28;20023;-78
2023/03/07 05:22:40;;;;;;;7.75;5.18;;;9.40;81.30;;;;;;4972304;28;20389;-81
2023/03/07 05:25:06;;;;;;;7.57;5.07;;;9.40;81.30;;;;;;4973695;28;20070;-80
2023/03/07 05:27:32;;;;;;;7.88;5.00;;;9.40;81.30;;;;;;4967901;28;20038;-80
2023/03/07 05:29:57;;;;;;;8.38;5.30;;;9.40;81.30;;;;;;4945097;29;20027;-80
2023/03/07 05:32:23;;;;;;;7.90;5.28;;;9.40;81.30;;;;;;4937738;29;20026;-80
2023/03/07 05:34:49;;;;;;;7.50;4.78;;;9.40;81.30;;;;;;4938508;29;20035;-81
2023/03/07 05:37:14;;;;;;;7.68;4.85;;;9.40;81.30;;;;;;4938133;29;20071;-82
2023/03/07 05:39:39;;;;;;;8.32;5.05;;;9.40;81.30;;;;;;4958350;28;20023;-81
2023/03/07 05:42:05;;;;;;;7.45;4.85;;;9.40;81.30;;;;;;4974507;28;20390;-83
2023/03/07 05:44:30;;;;;;;7.93;5.07;;;9.40;81.30;;;;;;4963848;28;20061;-79
2023/03/07 05:46:56;;;;;;;7.63;5.00;;;9.40;81.30;;;;;;4965121;28;20556;-78
2023/03/07 05:49:23;;;;;;;8.60;5.50;;;9.40;81.30;;;;;;4955312;28;20047;-82
2023/03/07 05:51:49;;;;;;;7.78;4.85;;;9.40;81.30;;;;;;4937817;29;20023;-80
2023/03/07 05:54:15;;;;;;;7.82;4.50;;;9.40;81.30;;;;;;4954367;29;20390;-81
2023/03/07 05:56:40;;;;;;;7.85;4.85;;;9.40;81.40;;;;;;4955196;29;20033;-80
2023/03/07 05:59:06;;;;;;;7.50;4.80;;;9.40;81.40;;;;;;4938803;29;20027;-81
2023/03/07 06:01:32;;;;;;;7.53;4.80;;;9.40;81.40;;;;;;4957328;29;20050;-81
2023/03/07 06:03:58;;;;;;;7.32;4.90;;;9.40;81.50;;;;;;4938330;29;20058;-80
2023/03/07 06:06:24;;;;;;;7.55;4.60;;;9.40;81.40;;;;;;4938973;29;20502;-80
2023/03/07 06:08:49;;;;;;;7.85;5.05;;;9.40;81.40;;;;;;4938621;29;20695;-82
2023/03/07 06:11:15;;;;;;;6.97;4.55;;;9.40;81.40;;;;;;4938585;29;20023;-83
2023/03/07 06:13:40;;;;;;;6.75;4.30;;;9.40;81.40;;;;;;4955655;29;20114;-82
2023/03/07 06:16:06;;;;;;;7.45;4.50;;;9.40;81.40;;;;;;4958181;28;20031;-83
2023/03/07 06:18:32;;;;;;;7.78;5.00;;;9.40;81.40;;;;;;4958990;29;20031;-84
2023/03/07 06:20:58;;;;;;;7.07;4.35;;;9.40;81.50;;;;;;4957813;29;20028;-83
2023/03/07 06:23:25;;;;;;;6.97;4.40;;;9.40;81.50;;;;;;4940555;29;20370;-82
2023/03/07 06:25:51;;;;;;;7.38;4.80;;;9.40;81.50;;;;;;4954996;29;20035;-81
2023/03/07 06:28:16;;;;;;;6.88;4.20;;;9.40;81.50;;;;;;4954315;29;20118;-79
2023/03/07 06:30:42;;;;;;;6.30;3.88;;;9.40;81.50;;;;;;4937235;29;20042;-81
2023/03/07 06:33:07;;;;;;;6.93;4.28;;;9.40;81.40;;;;;;4955636;29;20034;-81
2023/03/07 06:35:33;;;;;;;7.07;4.55;;;9.40;81.40;;;;;;4959428;28;20073;-79
2023/03/07 06:37:58;;;;;;;6.78;4.07;;;9.40;81.40;;;;;;4968140;28;20501;-79
2023/03/07 06:40:24;;;;;;;7.75;4.63;;;9.40;81.50;;;;;;4956864;28;20029;-80
2023/03/07 06:42:51;;;;;;;6.70;4.30;;;9.40;81.40;;;;;;4973978;28;20026;-83
2023/03/07 06:45:17;;;;;;;6.85;4.45;;;9.40;81.50;;;;;;4978979;28;20019;-82
2023/03/07 06:47:42;;;;;;;6.63;3.80;;;9.40;81.40;;;;;;4959456;28;20035;-81
2023/03/07 06:50:08;;;;;;;7.30;4.40;;;9.40;81.40;;;;;;4976822;28;20485;-80
2023/03/07 06:52:33;;;;;;;6.63;3.67;;;9.40;81.50;;;;;;4977622;28;20109;-82
2023/03/07 06:55:00;;;;;;;6.95;3.78;;;9.40;81.10;;;;;;4958513;28;20330;-82
2023/03/07 06:57:25;;;;;;;7.32;4.18;;;9.40;80.90;;;;;;4958478;28;20023;-82
2023/03/07 06:59:51;;;;;;;8.40;3.85;;;9.40;80.80;;;;;;4975103;28;20473;-82
2023/03/07 07:02:16;;;;;;;6.50;3.75;;;9.40;80.90;;;;;;4957483;28;20113;-82
2023/03/07 07:04:42;;;;;;;7.05;3.92;;;9.40;81.00;;;;;;4960457;28;20023;-82
2023/03/07 07:07:08;;;;;;;6.95;4.05;;;9.40;81.00;;;;;;4976964;28;20030;-82
2023/03/07 07:09:33;;;;;;;7.15;4.28;;;9.40;81.50;;;;;;4978012;28;20050;-82
2023/03/07 07:11:59;;;;;;;7.20;4.03;;;9.40;81.00;;;;;;4959530;28;20113;-82
2023/03/07 07:14:24;;;;;;;6.90;3.72;;;9.40;81.00;;;;;;4978210;28;20210;-82
2023/03/07 07:16:50;;;;;;;5.80;3.53;;;9.40;81.00;;;;;;4959399;28;20046;-82
2023/03/07 07:19:16;;;;;;;6.00;3.67;;;9.40;81.00;;;;;;4959085;28;20074;-82
2023/03/07 07:21:41;;;;;;;5.90;3.67;;;9.40;81.00;;;;;;4957257;28;20026;-82
2023/03/07 07:24:10;;;;;;;5.57;3.50;;;9.40;81.00;;;;;;4956977;28;20118;-82
2023/03/07 07:26:36;;;;;;;8.00;3.90;;;9.40;81.00;;;;;;4957132;28;20585;-82
2023/03/07 07:29:02;;;;;;;6.22;3.50;;;9.30;81.00;;;;;;4978124;28;20026;-82
2023/03/07 07:31:27;;;;;;;6.20;3.60;;;9.40;81.10;;;;;;4961787;28;20544;-82
2023/03/07 07:33:53;;;;;;;5.93;3.55;;;9.40;81.10;;;;;;4961011;28;20033;-82
2023/03/07 07:36:18;;;;;;;5.70;3.50;;;9.40;81.60;;;;;;4961431;28;20058;-82
2023/03/07 07:38:43;;;;;;;5.97;3.60;;;9.40;81.00;;;;;;4962661;28;20031;-82
2023/03/07 07:41:09;;;;;;;7.40;3.90;;;9.40;81.00;;;;;;4962663;28;20027;-82
2023/03/07 07:43:35;;;;;;;6.53;3.70;;;9.40;81.00;;;;;;4979071;28;20101;-82
2023/03/07 07:46:03;;;;;;;6.05;3.30;;;9.40;81.00;;;;;;4960002;28;20401;-82
2023/03/07 07:48:30;;;;;;;6.20;3.63;;;9.40;81.00;;;;;;4959984;28;20027;-82
2023/03/07 07:50:59;;;;;;;6.95;3.50;;;9.40;81.00;;;;;;4960182;28;20022;-82
2023/03/07 07:53:25;;;;;;;7.00;3.72;;;9.40;81.10;;;;;;4960276;28;20038;-81
2023/03/07 07:55:50;;;;;;;6.03;3.35;;;9.40;81.10;;;;;;4959393;28;20027;-82
2023/03/07 07:58:15;;;;;;;6.30;3.40;;;9.40;81.50;;;;;;4963063;28;20460;-82
2023/03/07 08:00:41;;;;;;;6.50;3.92;;;9.40;81.00;;;;;;4965212;28;20042;-81
2023/03/07 08:03:06;;;;;;;5.88;3.40;;;9.40;81.00;;;;;;4984922;28;20035;-83
2023/03/07 08:05:32;;;;;;;6.07;3.30;;;9.30;81.00;;;;;;4977247;28;20106;-81
2023/03/07 08:07:57;;;;;;;6.60;3.28;;;9.40;81.00;;;;;;4976510;28;20023;-82
2023/03/07 08:10:23;;;;;;;6.13;3.10;;;9.40;81.10;;;;;;4958984;28;20505;-82
2023/03/07 08:12:50;;;;;;;5.53;3.15;;;9.40;81.10;;;;;;4976658;28;20034;-82
2023/03/07 08:15:16;;;;;;;5.10;2.72;;;9.40;81.00;;;;;;4959622;28;20392;-82
2023/03/07 08:17:42;;;;;;;6.10;3.53;;;9.40;81.10;;;;;;4959703;28;20038;-81
2023/03/07 08:20:09;;;;;;;6.00;3.00;;;9.30;81.10;;;;;;4958888;28;20485;-82
2023/03/07 08:22:36;;;;;;;5.68;3.13;;;9.40;81.10;;;;;;4959110;28;20066;-82
2023/03/07 08:25:03;;;;;;;5.97;3.30;;;9.40;81.00;;;;;;4959168;28;20035;-82
2023/03/07 08:27:29;;;;;;;5.65;3.00;;;9.40;81.00;;;;;;4959966;28;20120;-82
2023/03/07 08:29:55;;;;;;;5.15;3.00;;;9.40;81.00;;;;;;4977772;28;20023;-82
2023/03/07 08:32:20;;;;;;;5.70;3.45;;;9.40;81.00;;;;;;4959673;28;20074;-82
2023/03/07 08:34:46;;;;;;;5.28;3.00;;;9.40;81.00;;;;;;4960350;28;20023;-82
2023/03/07 08:37:11;;;;;;;5.43;2.95;;;9.40;81.00;;;;;;4981954;28;20066;-82
2023/03/07 08:39:37;;;;;;;5.35;2.85;;;9.40;81.00;;;;;;4963668;28;20027;-82
2023/03/07 08:42:03;;;;;;;6.10;3.15;;;9.40;80.90;;;;;;4982285;28;20031;-82
2023/03/07 08:44:28;;;;;;;6.20;3.50;;;9.40;80.90;;;;;;4981876;28;20034;-82
2023/03/07 08:46:53;;;;;;;5.30;3.00;;;9.40;81.00;;;;;;4981791;28;20082;-82
2023/03/07 08:49:19;;;;;;;5.07;2.65;;;9.40;80.90;;;;;;4981583;28;20481;-82
2023/03/07 08:51:47;;;;;;;5.15;2.80;;;9.40;80.90;;;;;;4980944;28;20030;-81
2023/03/07 08:54:13;;;;;;;4.78;2.90;;;9.40;80.90;;;;;;4980391;28;20022;-82
2023/03/07 08:56:38;;;;;;;5.88;2.88;;;9.40;81.00;;;;;;4963591;28;20053;-82
2023/03/07 08:59:04;;;;;;;5.00;3.00;;;9.30;80.80;;;;;;4962315;28;20037;-82
2023/03/07 09:01:30;;;;;;;5.07;2.90;;;9.40;80.90;;;;;;4962329;28;20038;-82
2023/03/07 09:03:56;;;;;;;5.18;2.83;;;9.40;80.90;;;;;;4979998;28;20120;-81
2023/03/07 09:06:21;;;;;;;5.10;2.72;;;9.40;80.90;;;;;;4962599;28;20130;-82
2023/03/07 09:08:48;;;;;;;5.90;2.80;;;9.40;80.90;;;;;;4962401;28;20058;-82
2023/03/07 09:11:14;;;;;;;5.85;2.85;;;9.40;80.90;;;;;;4961954;28;20094;-82
2023/03/07 09:13:40;;;;;;;4.43;2.40;;;9.30;80.90;;;;;;4961835;28;20023;-81
2023/03/07 09:16:06;;;;;;;5.50;2.75;;;9.40;80.90;;;;;;4961178;28;20444;-82
2023/03/07 09:18:33;;;;;;;5.32;2.83;;;9.40;80.90;;;;;;4965124;28;20027;-81
2023/03/07 09:21:00;;;;;;;4.95;2.50;;;9.40;80.90;;;;;;4981538;28;20078;-82
2023/03/07 09:23:25;;;;;;;4.80;2.65;;;9.40;80.90;;;;;;4965766;28;20485;-82
2023/03/07 09:25:51;;;;;;;4.85;2.67;;;9.40;80.80;;;;;;4963718;28;20067;-82
2023/03/07 09:28:16;;;;;;;4.95;2.38;;;9.40;80.80;;;;;;4982931;28;20030;-82
2023/03/07 09:30:42;;;;;;;5.00;2.50;;;9.40;80.80;;;;;;4964344;28;20070;-82
2023/03/07 09:33:07;;;;;;;4.57;2.50;;;9.40;80.80;;;;;;4981200;28;20061;-82
2023/03/07 09:35:33;;;;;;;5.45;2.17;;;9.40;80.90;;;;;;4963310;28;20143;-82
2023/03/07 09:37:59;;;;;;;4.00;2.20;;;9.40;80.80;;;;;;4963238;28;20023;-82
2023/03/07 09:40:26;;;;;;;4.68;2.47;;;9.40;80.80;;;;;;4962957;28;20031;-81
2023/03/07 09:43:18;;;;;;;4.10;2.40;;;9.40;80.90;;;;;;4979886;28;20029;-82
2023/03/07 09:46:02;;;;;;;4.82;2.42;;;9.40;80.90;;;;;;4980180;28;20030;-82
2023/03/07 09:48:56;;;;;;;4.10;2.28;;;9.40;80.90;;;;;;4962115;28;20080;-83
2023/03/07 09:51:38;;;;;;;4.32;2.28;;;9.40;80.90;;;;;;4961777;28;20050;-82
2023/03/07 09:54:26;;;;;;;4.00;2.30;;;9.40;80.80;;;;;;4961606;28;20517;-82
2023/03/07 09:56:58;;;;;;;4.68;2.40;;;9.40;80.90;;;;;;4979087;28;20035;-82
2023/03/07 09:59:35;;;;;;;4.22;2.22;;;9.40;80.90;;;;;;4978674;28;20022;-82
2023/03/07 10:02:19;;;;;;;5.43;2.30;;;9.40;81.40;;;;;;4978967;28;20529;-82
2023/03/07 10:05:11;;;;;;;3.15;1.83;;;9.40;80.80;;;;;;4960279;28;20046;-82
2023/03/07 10:07:37;;;;;;;4.28;2.22;;;9.40;80.80;;;;;;4948200;28;20074;-82
2023/03/07 10:10:16;;;;;;;4.30;2.10;;;9.40;80.90;;;;;;4964924;28;20094;-82
2023/03/07 10:13:19;;;;;;;4.13;2.25;;;9.40;80.80;;;;;;4979996;28;20109;-82
2023/03/07 10:15:50;;;;;;;4.28;2.03;;;9.40;80.90;;;;;;4927226;28;20049;-82
2023/03/07 10:18:51;;;;;;;4.22;2.30;;;9.40;80.80;;;;;;4960096;28;20117;-82
2023/03/07 10:21:22;;;;;;;4.57;2.30;;;9.40;80.90;;;;;;4963288;28;20039;-82
2023/03/07 10:24:16;;;;;;;4.03;2.30;;;9.40;80.80;;;;;;4961405;28;20034;-80
2023/03/07 10:26:49;;;;;;;4.03;2.10;;;9.40;80.80;;;;;;4979035;28;20061;-82
2023/03/07 10:29:23;;;;;;;3.63;2.05;;;9.40;80.80;;;;;;4978632;28;20110;-83
2023/03/07 10:32:05;;;;;;;4.22;2.15;;;9.40;80.80;;;;;;4960358;28;20397;-82
2023/03/07 10:34:30;;;;;;;4.28;2.20;;;9.40;80.80;;;;;;4957831;28;20101;-82
2023/03/07 10:37:07;;;;;;;3.97;2.05;;;9.40;80.70;;;;;;4960688;28;20034;-82
2023/03/07 10:39:35;;;;;;;3.63;1.98;;;9.40;81.30;;;;;;4979514;28;20034;-82
2023/03/07 10:42:00;;;;;;;4.13;1.85;;;9.40;80.80;;;;;;4958507;28;20027;-82
2023/03/07 10:44:30;;;;;;;3.70;1.92;;;9.40;80.80;;;;;;4975420;28;20030;-82
2023/03/07 10:46:58;;;;;;;3.45;1.70;;;9.40;80.80;;;;;;4957858;28;20054;-82
2023/03/07 10:49:33;;;;;;;3.38;1.77;;;9.50;80.90;;;;;;4975930;28;20449;-82
2023/03/07 10:52:02;;;;;;;3.20;1.83;;;9.40;80.80;;;;;;4957687;28;20449;-82
2023/03/07 10:54:30;;;;;;;3.05;1.80;;;9.40;80.70;;;;;;4957914;28;20023;-82
2023/03/07 10:57:08;;;;;;;3.65;1.80;;;9.40;80.80;;;;;;4957619;28;20026;-82
2023/03/07 10:59:35;;;;;;;4.03;1.90;;;9.40;80.80;;;;;;4975252;28;20031;-82
2023/03/07 11:02:04;;;;;;;3.70;1.80;;;9.40;80.70;;;;;;4956892;28;20390;-82
2023/03/07 11:04:43;;;;;;;2.75;1.63;;;9.40;80.70;;;;;;4974590;28;20046;-82
2023/03/07 11:07:27;;;;;;;3.63;1.90;;;9.40;80.70;;;;;;4975003;28;20426;-82
2023/03/07 11:09:53;;;;;;;3.40;1.70;;;9.40;80.70;;;;;;4976265;28;20065;-82
2023/03/07 11:12:20;;;;;;;3.95;2.10;;;9.40;80.70;;;;;;4977148;28;20027;-82
2023/03/07 11:14:47;;;;;;;3.33;1.83;;;9.50;80.80;;;;;;4976448;28;20035;-83
2023/03/07 11:17:37;;;;;;;2.97;1.77;;;9.40;80.70;;;;;;4975321;28;20043;-81
2023/03/07 11:20:16;;;;;;;;;;;9.50;80.70;;;;;;4974160;28;20551;-82
2023/03/07 11:22:42;;;;;;;3.50;1.85;;;9.50;80.70;;;;;;4962385;28;19913;-83
2023/03/07 11:25:07;;;;;;;3.60;1.60;;;9.40;80.60;;;;;;4976807;28;20026;-82
2023/03/07 11:27:51;;;;;;;3.53;1.70;;;9.50;80.70;;;;;;4956375;28;20508;-82
2023/03/07 11:30:21;;;;;;;3.88;2.00;;;9.50;80.80;;;;;;4956478;28;20034;-83
2023/03/07 11:33:09;;;;;;;2.80;1.63;;;9.50;80.70;;;;;;4975565;28;20110;-83
2023/03/07 11:35:50;;;;;;;3.08;1.58;;;9.50;80.70;;;;;;4976162;28;20405;-83
2023/03/07 11:38:35;;;;;;;3.70;1.83;;;9.50;80.70;;;;;;4958271;28;20022;-83
2023/03/07 11:41:09;;;;;;;3.92;1.95;;;9.50;80.70;;;;;;4958875;28;20047;-83
2023/03/07 11:43:56;;;;;;;3.70;1.80;;;9.50;80.70;;;;;;4974615;28;20023;-82
2023/03/07 11:46:37;;;;;;;3.60;1.65;;;9.50;80.70;;;;;;4959480;28;20034;-82
2023/03/07 11:49:36;;;;;;;4.25;1.88;;;9.50;80.70;;;;;;4960217;28;20400;-83
2023/03/07 11:52:43;;;;;;;3.42;1.70;;;9.50;80.70;;;;;;4957573;28;20027;-83
2023/03/07 11:55:21;;;;;;;3.05;1.80;;;9.50;80.70;;;;;;4955703;28;20018;-82
2023/03/07 11:58:10;;;;;;;3.42;1.67;;;9.50;80.70;;;;;;4955583;28;20382;-82
2023/03/07 12:00:42;;;;;;;3.17;1.60;;;9.50;80.60;;;;;;4956558;28;20453;-82
2023/03/07 12:03:49;;;;;;;3.92;1.60;;;9.50;80.60;;;;;;4958778;28;20396;-82
2023/03/07 12:07:03;;;;;;;4.20;1.90;;;9.50;80.70;;;;;;4976889;28;20031;-83
2023/03/07 12:09:44;;;;;;;3.05;1.45;;;9.50;80.70;;;;;;4864369;29;20108;-83
2023/03/07 12:12:42;;;;;;;3.35;1.70;;;9.50;80.70;;;;;;4961068;28;20082;-83
2023/03/07 12:15:19;;;;;;;2.20;1.27;;;9.50;80.70;;;;;;4963146;28;20046;-83
2023/03/07 12:18:13;;;;;;;3.00;1.58;;;9.50;80.70;;;;;;4964106;28;20453;-83
2023/03/07 12:21:15;;;;;;;2.42;1.48;;;9.50;80.70;;;;;;4965018;28;20026;-83
2023/03/07 12:23:46;;;;;;;3.40;1.55;;;9.50;80.70;;;;;;4964010;28;20045;-83
2023/03/07 12:26:35;;;;;;;2.15;1.35;;;9.50;80.70;;;;;;4964175;28;20033;-83
2023/03/07 12:29:08;;;;;;;2.88;1.50;;;9.50;80.70;;;;;;4964137;28;20041;-83
2023/03/07 12:31:38;;;;;;;3.65;1.60;;;9.50;80.60;;;;;;4964237;28;20097;-83
2023/03/07 12:34:14;;;;;;;3.42;1.80;;;9.50;81.20;;;;;;4963164;28;20061;-83
2023/03/07 12:37:01;;;;;;;3.05;1.65;;;9.50;80.70;;;;;;4981131;28;20026;-82
2023/03/07 12:39:33;;;;;;;2.63;1.30;;;9.50;80.60;;;;;;4963004;28;20063;-83
2023/03/07 12:42:04;;;;;;;;;;;9.50;80.60;;;;;;4964411;28;20485;-83
2023/03/07 12:44:39;;;;;;;2.38;1.40;;;9.50;80.60;;;;;;4999736;23;19926;-80
2023/03/07 12:47:32;;;;;;;3.28;1.50;;;9.50;80.60;;;;;;4958168;28;20069;-80
2023/03/07 12:50:11;;;;;;;2.55;1.40;;;9.50;80.60;;;;;;4975513;28;20023;-80
2023/03/07 12:52:54;;;;;;;2.80;1.40;;;9.50;80.60;;;;;;4958165;28;20509;-80
2023/03/07 12:55:35;;;;;;;2.00;1.20;;;9.50;80.70;;;;;;4970851;28;20037;-81
2023/03/07 12:58:05;;;;;;;3.55;1.58;;;9.50;80.70;;;;;;4957969;28;20030;-80
2023/03/07 13:00:34;;;;;;;2.30;1.27;;;9.50;80.70;;;;;;4958020;28;20482;-80
2023/03/07 13:03:03;;;;;;;2.80;1.30;;;9.50;80.70;;;;;;4958310;28;20030;-80
2023/03/07 13:05:29;;;;;;;2.40;1.40;;;9.50;80.70;;;;;;4957398;28;20090;-80
2023/03/07 13:07:56;;;;;;;2.67;1.45;;;9.50;80.70;;;;;;4975195;28;20118;-80